Time;durP1;ratioP1;P1;durP2;ratioP2;P2;SDS_P1;SDS_P2;PMS_P1;PMS_P2;Temp;Humidity;BMP_temperature;BMP_pressure;BME280_temperature;BME280_humidity;BME280_pressure;Samples;Min_cycle;Max_cycle;Signal;HPM_P1;HPM_P2
2023/04/06 00:01:11;;;;;;;2.58;2.13;;;;;;;;;;4986185;28;20458;-54
2023/04/06 00:03:37;;;;;;;2.45;1.95;;;;;;;;;;4993927;28;20192;-55
2023/04/06 00:06:04;;;;;;;2.30;2.00;;;;;;;;;;4992149;28;20189;-54
2023/04/06 00:08:30;;;;;;;2.20;2.00;;;;;;;;;;4990718;28;20184;-54
2023/04/06 00:10:56;;;;;;;2.15;1.92;;;;;;;;;;4991024;28;20221;-54
2023/04/06 00:13:22;;;;;;;2.90;2.00;;;;;;;;;;4993509;28;20215;-54
2023/04/06 00:15:48;;;;;;;1.90;1.73;;;;;;;;;;4991540;28;20202;-54
2023/04/06 00:18:14;;;;;;;2.05;1.85;;;;;;;;;;4993836;28;20459;-54
2023/04/06 00:20:40;;;;;;;2.03;1.80;;;;;;;;;;4986648;28;20495;-54
2023/04/06 00:23:06;;;;;;;2.67;2.00;;;;;;;;;;4990524;28;20620;-54
2023/04/06 00:25:31;;;;;;;2.92;2.28;;;;;;;;;;4995036;28;20185;-54
2023/04/06 00:27:57;;;;;;;2.33;1.98;;;;;;;;;;4993706;28;20219;-54
2023/04/06 00:30:23;;;;;;;2.08;1.80;;;;;;;;;;4994677;28;20283;-55
2023/04/06 00:32:49;;;;;;;2.10;1.90;;;;;;;;;;4992280;28;20544;-55
2023/04/06 00:35:15;;;;;;;2.85;2.25;;;;;;;;;;4992054;28;20189;-54
2023/04/06 00:37:41;;;;;;;3.08;2.05;;;;;;;;;;4987344;28;20215;-55
2023/04/06 00:40:07;;;;;;;2.38;2.00;;;;;;;;;;4991535;28;20177;-55
2023/04/06 00:42:33;;;;;;;2.20;1.75;;;;;;;;;;4991044;28;20177;-55
2023/04/06 00:45:00;;;;;;;2.17;1.98;;;;;;;;;;4993385;28;20509;-55
2023/04/06 00:47:26;;;;;;;1.73;1.50;;;;;;;;;;4990847;28;20177;-54
2023/04/06 00:49:53;;;;;;;2.25;1.92;;;;;;;;;;4991452;28;20314;-54
2023/04/06 00:52:19;;;;;;;2.25;1.90;;;;;;;;;;4992587;28;20581;-55
2023/04/06 00:54:45;;;;;;;2.42;2.10;;;;;;;;;;4993783;28;20553;-55
2023/04/06 00:57:15;;;;;;;2.33;1.95;;;;;;;;;;4994383;28;20197;-55
2023/04/06 00:59:41;;;;;;;2.20;2.00;;;;;;;;;;4993754;28;20185;-55
2023/04/06 01:02:07;;;;;;;2.35;1.98;;;;;;;;;;4989678;28;20200;-55
2023/04/06 01:04:33;;;;;;;2.63;1.90;;;;;;;;;;4991651;28;20193;-55
2023/04/06 01:06:59;;;;;;;2.20;1.88;;;;;;;;;;4986752;28;20196;-55
2023/04/06 01:09:24;;;;;;;2.08;1.67;;;;;;;;;;4995094;28;20216;-54
2023/04/06 01:11:50;;;;;;;2.10;1.90;;;;;;;;;;4997154;28;20208;-54
2023/04/06 01:14:16;;;;;;;2.10;1.90;;;;;;;;;;4996140;28;20224;-55
2023/04/06 01:16:42;;;;;;;3.05;2.10;;;;;;;;;;4992940;28;20177;-54
2023/04/06 01:19:09;;;;;;;2.13;1.88;;;;;;;;;;4986669;28;20204;-54
2023/04/06 01:21:35;;;;;;;2.65;1.92;;;;;;;;;;4996824;28;20205;-55
2023/04/06 01:24:01;;;;;;;2.38;1.88;;;;;;;;;;4992520;28;20265;-55
2023/04/06 01:26:29;;;;;;;2.58;1.80;;;;;;;;;;4996961;28;20272;-55
2023/04/06 01:28:55;;;;;;;2.28;1.80;;;;;;;;;;4996761;28;20192;-55
2023/04/06 01:31:21;;;;;;;2.22;1.90;;;;;;;;;;4996861;28;20209;-55
2023/04/06 01:33:47;;;;;;;2.13;1.80;;;;;;;;;;4993156;28;20183;-55
2023/04/06 01:36:13;;;;;;;2.47;1.88;;;;;;;;;;4990505;28;20288;-55
2023/04/06 01:38:39;;;;;;;2.10;1.90;;;;;;;;;;4995493;28;20549;-55
2023/04/06 01:41:05;;;;;;;1.88;1.67;;;;;;;;;;4996444;28;20185;-55
2023/04/06 01:43:31;;;;;;;2.22;1.77;;;;;;;;;;4992161;28;20385;-55
2023/04/06 01:45:57;;;;;;;2.22;1.92;;;;;;;;;;4994452;28;20189;-55
2023/04/06 01:48:22;;;;;;;2.13;1.95;;;;;;;;;;4991874;28;20243;-55
2023/04/06 01:50:48;;;;;;;1.80;1.58;;;;;;;;;;4991898;28;20295;-55
2023/04/06 01:53:15;;;;;;;1.88;1.70;;;;;;;;;;4994983;28;20184;-55
2023/04/06 01:55:41;;;;;;;2.10;1.90;;;;;;;;;;4995964;28;20213;-55
2023/04/06 01:58:07;;;;;;;2.08;1.88;;;;;;;;;;4994713;28;20177;-55
2023/04/06 02:00:33;;;;;;;2.10;1.88;;;;;;;;;;4995374;28;20188;-55
2023/04/06 02:02:59;;;;;;;1.80;1.70;;;;;;;;;;4996276;28;20491;-55
2023/04/06 02:05:26;;;;;;;2.53;2.13;;;;;;;;;;4992214;28;20291;-55
2023/04/06 02:07:52;;;;;;;2.17;1.75;;;;;;;;;;4991410;28;20194;-55
2023/04/06 02:10:18;;;;;;;2.22;1.70;;;;;;;;;;4994613;28;20189;-55
2023/04/06 02:12:44;;;;;;;2.20;1.90;;;;;;;;;;4991664;28;20439;-55
2023/04/06 02:15:10;;;;;;;1.95;1.80;;;;;;;;;;4994351;28;20204;-55
2023/04/06 02:17:36;;;;;;;2.30;1.98;;;;;;;;;;4986263;28;20311;-55
2023/04/06 02:20:02;;;;;;;2.08;1.88;;;;;;;;;;4984307;28;20257;-54
2023/04/06 02:22:28;;;;;;;2.40;1.65;;;;;;;;;;4990538;28;20213;-55
2023/04/06 02:24:53;;;;;;;2.22;1.90;;;;;;;;;;4990587;28;20553;-55
2023/04/06 02:27:19;;;;;;;2.05;1.83;;;;;;;;;;4993847;28;20248;-55
2023/04/06 02:29:45;;;;;;;3.35;2.13;;;;;;;;;;4995416;28;20305;-55
2023/04/06 02:32:11;;;;;;;1.83;1.73;;;;;;;;;;4991694;28;20202;-55
2023/04/06 02:34:37;;;;;;;1.70;1.60;;;;;;;;;;4990665;28;20185;-55
2023/04/06 02:37:03;;;;;;;1.95;1.70;;;;;;;;;;4995065;28;20181;-55
2023/04/06 02:39:29;;;;;;;2.17;1.85;;;;;;;;;;4986988;28;20247;-55
2023/04/06 02:41:56;;;;;;;2.05;1.67;;;;;;;;;;4996320;28;20185;-55
2023/04/06 02:44:22;;;;;;;1.80;1.70;;;;;;;;;;4988867;28;20240;-55
2023/04/06 02:46:48;;;;;;;1.90;1.75;;;;;;;;;;4987823;28;20193;-55
2023/04/06 02:49:14;;;;;;;2.17;1.90;;;;;;;;;;4991189;28;20237;-54
2023/04/06 02:51:40;;;;;;;3.28;2.00;;;;;;;;;;4992481;28;20214;-55
2023/04/06 02:54:06;;;;;;;2.20;1.88;;;;;;;;;;4985134;28;20190;-55
2023/04/06 02:56:32;;;;;;;2.17;1.60;;;;;;;;;;4995422;28;20219;-55
2023/04/06 02:58:58;;;;;;;2.00;1.90;;;;;;;;;;4995562;28;20185;-55
2023/04/06 03:01:24;;;;;;;2.28;2.05;;;;;;;;;;4992570;28;20200;-54
2023/04/06 03:03:50;;;;;;;1.70;1.60;;;;;;;;;;4994067;28;20429;-54
2023/04/06 03:06:16;;;;;;;2.53;1.90;;;;;;;;;;4988614;28;20553;-54
2023/04/06 03:08:41;;;;;;;2.90;1.85;;;;;;;;;;4990445;28;20181;-54
2023/04/06 03:11:07;;;;;;;1.95;1.80;;;;;;;;;;4995413;28;20623;-55
2023/04/06 03:13:33;;;;;;;2.40;1.50;;;;;;;;;;4993638;28;20185;-55
2023/04/06 03:15:59;;;;;;;2.08;1.55;;;;;;;;;;4994677;28;20205;-55
2023/04/06 03:18:25;;;;;;;1.60;1.50;;;;;;;;;;4994072;28;20181;-55
2023/04/06 03:20:53;;;;;;;1.80;1.70;;;;;;;;;;4990602;28;20193;-55
2023/04/06 03:23:20;;;;;;;3.35;1.92;;;;;;;;;;4990740;28;20192;-54
2023/04/06 03:25:46;;;;;;;1.65;1.52;;;;;;;;;;4990838;28;20181;-54
2023/04/06 03:28:12;;;;;;;1.80;1.70;;;;;;;;;;4994603;28;20193;-54
2023/04/06 03:30:38;;;;;;;1.58;1.48;;;;;;;;;;4993564;28;20255;-54
2023/04/06 03:33:04;;;;;;;1.77;1.67;;;;;;;;;;4988217;28;20193;-54
2023/04/06 03:35:30;;;;;;;2.03;1.70;;;;;;;;;;4992108;28;20202;-55
2023/04/06 03:37:57;;;;;;;3.28;1.90;;;;;;;;;;4989039;28;20192;-55
2023/04/06 03:40:23;;;;;;;2.42;1.75;;;;;;;;;;4984032;28;20291;-55
2023/04/06 03:42:49;;;;;;;3.03;2.08;;;;;;;;;;4991176;28;20214;-54
2023/04/06 03:45:15;;;;;;;3.20;2.22;;;;;;;;;;4994078;28;20189;-54
2023/04/06 03:47:41;;;;;;;2.55;1.95;;;;;;;;;;4990088;28;20188;-54
2023/04/06 03:50:07;;;;;;;2.63;1.90;;;;;;;;;;4992279;28;20212;-54
2023/04/06 03:52:33;;;;;;;4.03;2.08;;;;;;;;;;4991976;28;20220;-54
2023/04/06 03:54:58;;;;;;;4.20;2.22;;;;;;;;;;4989056;28;20242;-55
2023/04/06 03:57:24;;;;;;;4.63;2.10;;;;;;;;;;4993681;28;20188;-55
2023/04/06 03:59:50;;;;;;;7.55;2.22;;;;;;;;;;4993755;28;20177;-55
2023/04/06 04:02:16;;;;;;;8.73;2.65;;;;;;;;;;4987365;28;20235;-55
2023/04/06 04:04:42;;;;;;;9.10;2.63;;;;;;;;;;4991672;28;20211;-54
2023/04/06 04:07:08;;;;;;;5.65;2.60;;;;;;;;;;4990640;28;20196;-55
2023/04/06 04:09:35;;;;;;;8.57;2.70;;;;;;;;;;4993951;28;20200;-55
2023/04/06 04:12:01;;;;;;;4.88;2.65;;;;;;;;;;4994266;28;20209;-55
2023/04/06 04:14:27;;;;;;;4.65;2.35;;;;;;;;;;4992689;28;20246;-55
2023/04/06 04:16:52;;;;;;;5.80;2.40;;;;;;;;;;5007345;28;20184;-55
2023/04/06 04:19:18;;;;;;;6.25;2.75;;;;;;;;;;4996303;28;20185;-55
2023/04/06 04:21:45;;;;;;;5.90;2.53;;;;;;;;;;4993772;28;20189;-55
2023/04/06 04:24:11;;;;;;;5.95;2.78;;;;;;;;;;4993877;28;20339;-55
2023/04/06 04:26:37;;;;;;;6.88;2.40;;;;;;;;;;4993969;28;20276;-55
2023/04/06 04:29:03;;;;;;;7.88;3.10;;;;;;;;;;4987424;28;20199;-54
2023/04/06 04:31:29;;;;;;;8.50;3.25;;;;;;;;;;4994072;28;20220;-54
2023/04/06 04:33:55;;;;;;;6.45;2.85;;;;;;;;;;4982719;28;20186;-54
2023/04/06 04:36:21;;;;;;;7.43;2.47;;;;;;;;;;4991873;28;20193;-54
2023/04/06 04:38:47;;;;;;;6.32;2.72;;;;;;;;;;4992892;28;20193;-54
2023/04/06 04:41:13;;;;;;;6.35;2.55;;;;;;;;;;4993857;28;20320;-54
2023/04/06 04:43:39;;;;;;;5.30;2.08;;;;;;;;;;4994157;28;20572;-54
2023/04/06 04:46:05;;;;;;;6.60;2.97;;;;;;;;;;5004856;28;20271;-54
2023/04/06 04:48:31;;;;;;;6.45;2.83;;;;;;;;;;5005431;28;20189;-55
2023/04/06 04:50:57;;;;;;;3.85;2.08;;;;;;;;;;4995343;28;20324;-54
2023/04/06 04:53:23;;;;;;;7.90;2.60;;;;;;;;;;4993716;28;20192;-54
2023/04/06 04:55:49;;;;;;;4.97;2.55;;;;;;;;;;4996494;28;20196;-54
2023/04/06 04:58:16;;;;;;;3.63;2.40;;;;;;;;;;4993842;28;20267;-54
2023/04/06 05:00:42;;;;;;;5.15;2.55;;;;;;;;;;4994932;28;20664;-54
2023/04/06 05:03:09;;;;;;;5.40;2.22;;;;;;;;;;4997002;28;20646;-54
2023/04/06 05:05:35;;;;;;;6.70;2.63;;;;;;;;;;4998093;28;20510;-54
2023/04/06 05:08:00;;;;;;;4.20;2.60;;;;;;;;;;4990097;28;20264;-54
2023/04/06 05:10:26;;;;;;;5.30;2.47;;;;;;;;;;4991944;28;20260;-54
2023/04/06 05:12:52;;;;;;;7.35;2.70;;;;;;;;;;4995939;28;20185;-54
2023/04/06 05:15:18;;;;;;;5.90;2.90;;;;;;;;;;4995614;28;20488;-54
2023/04/06 05:17:44;;;;;;;4.32;2.60;;;;;;;;;;4997458;28;20188;-54
2023/04/06 05:20:10;;;;;;;7.00;2.10;;;;;;;;;;4997256;28;20185;-54
2023/04/06 05:22:36;;;;;;;3.67;2.50;;;;;;;;;;4994588;28;20200;-54
2023/04/06 05:25:03;;;;;;;8.30;2.72;;;;;;;;;;4997035;28;20193;-54
2023/04/06 05:27:29;;;;;;;4.78;2.75;;;;;;;;;;4996507;28;20827;-54
2023/04/06 05:29:55;;;;;;;3.88;2.22;;;;;;;;;;4996548;28;20211;-54
2023/04/06 05:32:21;;;;;;;2.45;2.10;;;;;;;;;;4997700;28;20581;-54
2023/04/06 05:34:49;;;;;;;4.97;2.05;;;;;;;;;;4997317;28;20169;-54
2023/04/06 05:37:15;;;;;;;5.53;2.53;;;;;;;;;;4997666;28;20181;-54
2023/04/06 05:39:41;;;;;;;4.80;2.47;;;;;;;;;;4997194;28;20251;-55
2023/04/06 05:42:07;;;;;;;4.18;2.35;;;;;;;;;;4998009;28;20557;-54
2023/04/06 05:44:33;;;;;;;3.88;2.47;;;;;;;;;;4999153;28;20189;-54
2023/04/06 05:46:59;;;;;;;5.28;2.40;;;;;;;;;;5016743;28;20264;-54
2023/04/06 05:49:25;;;;;;;5.22;2.30;;;;;;;;;;4999629;28;20660;-54
2023/04/06 05:51:51;;;;;;;4.28;2.40;;;;;;;;;;4997470;28;20284;-55
2023/04/06 05:54:17;;;;;;;3.95;2.55;;;;;;;;;;4996012;28;20199;-54
2023/04/06 05:56:43;;;;;;;2.95;2.25;;;;;;;;;;4996643;28;20256;-55
2023/04/06 05:59:09;;;;;;;4.45;2.47;;;;;;;;;;4997682;28;20227;-54
2023/04/06 06:01:35;;;;;;;3.92;2.30;;;;;;;;;;4996197;28;20332;-54
2023/04/06 06:04:02;;;;;;;4.38;2.55;;;;;;;;;;4997246;28;20193;-54
2023/04/06 06:06:30;;;;;;;4.78;2.50;;;;;;;;;;4996388;28;20188;-55
2023/04/06 06:08:58;;;;;;;3.42;2.30;;;;;;;;;;4997316;28;20574;-55
2023/04/06 06:11:25;;;;;;;4.57;2.25;;;;;;;;;;4997223;28;20201;-54
2023/04/06 06:13:51;;;;;;;4.72;2.10;;;;;;;;;;4997004;28;20184;-54
2023/04/06 06:16:17;;;;;;;6.45;2.67;;;;;;;;;;5012142;28;20181;-54
2023/04/06 06:18:43;;;;;;;4.00;2.22;;;;;;;;;;5004968;28;20705;-54
2023/04/06 06:21:11;;;;;;;4.32;2.13;;;;;;;;;;4996401;28;20192;-54
2023/04/06 06:23:37;;;;;;;2.78;2.13;;;;;;;;;;4996262;28;20248;-54
2023/04/06 06:26:03;;;;;;;3.38;1.90;;;;;;;;;;4996880;28;20628;-54
2023/04/06 06:28:29;;;;;;;2.95;2.15;;;;;;;;;;4996894;28;20193;-54
2023/04/06 06:30:55;;;;;;;2.92;2.13;;;;;;;;;;4996525;28;20291;-54
2023/04/06 06:33:20;;;;;;;4.63;2.60;;;;;;;;;;4996126;28;20185;-54
2023/04/06 06:35:46;;;;;;;4.15;2.10;;;;;;;;;;4996245;28;20252;-54
2023/04/06 06:38:12;;;;;;;2.92;2.13;;;;;;;;;;4996676;28;20247;-54
2023/04/06 06:40:38;;;;;;;3.20;2.30;;;;;;;;;;4989642;28;20185;-54
2023/04/06 06:43:04;;;;;;;3.75;2.25;;;;;;;;;;4993880;28;20200;-55
2023/04/06 06:45:30;;;;;;;2.97;2.10;;;;;;;;;;4987119;28;20188;-54
2023/04/06 06:47:56;;;;;;;5.10;2.53;;;;;;;;;;4993791;28;20264;-54
2023/04/06 06:50:22;;;;;;;3.78;2.28;;;;;;;;;;4994986;28;20192;-54
2023/04/06 06:52:48;;;;;;;2.53;2.10;;;;;;;;;;4993204;28;20267;-54
2023/04/06 06:55:15;;;;;;;4.47;2.30;;;;;;;;;;4995930;28;20196;-54
2023/04/06 06:57:42;;;;;;;3.53;2.00;;;;;;;;;;4996001;28;20233;-54
2023/04/06 07:00:08;;;;;;;2.75;2.17;;;;;;;;;;4994444;28;20216;-54
2023/04/06 07:02:35;;;;;;;2.50;1.67;;;;;;;;;;4995014;28;20224;-54
2023/04/06 07:05:01;;;;;;;2.55;1.98;;;;;;;;;;4994934;28;20181;-54
2023/04/06 07:07:27;;;;;;;2.72;2.00;;;;;;;;;;4994747;28;20271;-55
2023/04/06 07:09:53;;;;;;;2.50;1.70;;;;;;;;;;4995896;28;20569;-55
2023/04/06 07:12:19;;;;;;;2.80;2.03;;;;;;;;;;4995973;28;20348;-54
2023/04/06 07:14:45;;;;;;;2.88;2.20;;;;;;;;;;4991046;28;20189;-54
2023/04/06 07:17:11;;;;;;;3.17;2.08;;;;;;;;;;5006005;28;20263;-54
2023/04/06 07:19:37;;;;;;;3.00;1.85;;;;;;;;;;4991998;28;20572;-55
2023/04/06 07:22:03;;;;;;;4.20;2.15;;;;;;;;;;5001725;28;20193;-54
2023/04/06 07:24:29;;;;;;;2.42;1.58;;;;;;;;;;5003051;28;20244;-55
2023/04/06 07:26:58;;;;;;;2.58;1.90;;;;;;;;;;4998355;28;20674;-55
2023/04/06 07:29:24;;;;;;;1.95;1.80;;;;;;;;;;4994042;28;20185;-54
2023/04/06 07:31:50;;;;;;;2.85;1.73;;;;;;;;;;5000218;28;20213;-55
2023/04/06 07:34:16;;;;;;;2.35;1.88;;;;;;;;;;4989784;28;20243;-54
2023/04/06 07:36:42;;;;;;;4.03;2.30;;;;;;;;;;4998571;28;20281;-54
2023/04/06 07:39:07;;;;;;;2.50;1.85;;;;;;;;;;5007766;28;20504;-54
2023/04/06 07:41:34;;;;;;;2.45;1.95;;;;;;;;;;4984296;28;20236;-54
2023/04/06 07:43:59;;;;;;;2.20;1.70;;;;;;;;;;4993327;28;20196;-54
2023/04/06 07:46:25;;;;;;;3.38;2.20;;;;;;;;;;5003148;28;20184;-54
2023/04/06 07:48:51;;;;;;;2.45;1.90;;;;;;;;;;4989664;28;20287;-54
2023/04/06 07:51:17;;;;;;;1.77;1.67;;;;;;;;;;4991793;28;20213;-54
2023/04/06 07:53:44;;;;;;;1.83;1.63;;;;;;;;;;4987701;28;20178;-55
2023/04/06 07:56:11;;;;;;;2.17;1.90;;;;;;;;;;4996504;28;20185;-54
2023/04/06 07:58:37;;;;;;;2.17;1.70;;;;;;;;;;4995828;28;20178;-54
2023/04/06 08:01:03;;;;;;;1.67;1.58;;;;;;;;;;4983371;28;20568;-55
2023/04/06 08:03:29;;;;;;;1.80;1.70;;;;;;;;;;4989834;28;20208;-54
2023/04/06 08:05:56;;;;;;;2.45;1.80;;;;;;;;;;4978633;28;20568;-54
2023/04/06 08:08:22;;;;;;;1.98;1.70;;;;;;;;;;4983496;28;20501;-54
2023/04/06 08:10:48;;;;;;;2.00;1.80;;;;;;;;;;4988319;28;20808;-54
2023/04/06 08:13:15;;;;;;;2.00;1.60;;;;;;;;;;4982764;28;20485;-54
2023/04/06 08:15:41;;;;;;;1.85;1.65;;;;;;;;;;4990662;28;20854;-54
2023/04/06 08:18:07;;;;;;;2.08;1.67;;;;;;;;;;4991279;28;20192;-55
2023/04/06 08:20:33;;;;;;;2.35;1.80;;;;;;;;;;4991681;28;20185;-54
2023/04/06 08:22:59;;;;;;;1.63;1.48;;;;;;;;;;5001610;28;20177;-55
2023/04/06 08:25:25;;;;;;;1.60;1.50;;;;;;;;;;4983990;28;20197;-54
2023/04/06 08:27:51;;;;;;;1.63;1.52;;;;;;;;;;4998027;28;20239;-54
2023/04/06 08:30:18;;;;;;;1.85;1.63;;;;;;;;;;4992288;28;20196;-54
2023/04/06 08:32:44;;;;;;;1.75;1.60;;;;;;;;;;4990734;28;20307;-54
2023/04/06 08:35:10;;;;;;;1.92;1.63;;;;;;;;;;4984506;28;20184;-54
2023/04/06 08:37:36;;;;;;;2.05;1.40;;;;;;;;;;4987904;28;20185;-55
2023/04/06 08:40:03;;;;;;;1.70;1.40;;;;;;;;;;4986268;28;20454;-54
2023/04/06 08:42:32;;;;;;;2.28;1.45;;;;;;;;;;4989274;28;20189;-54
2023/04/06 08:44:58;;;;;;;1.63;1.52;;;;;;;;;;4987964;28;20180;-54
2023/04/06 08:47:24;;;;;;;1.85;1.50;;;;;;;;;;5009508;28;20230;-54
2023/04/06 08:49:50;;;;;;;1.40;1.30;;;;;;;;;;4991975;28;20197;-54
2023/04/06 08:52:18;;;;;;;1.85;1.48;;;;;;;;;;4993401;28;20220;-54
2023/04/06 08:54:44;;;;;;;2.47;1.75;;;;;;;;;;4986810;28;20423;-54
2023/04/06 08:57:10;;;;;;;2.47;1.70;;;;;;;;;;4985731;28;20487;-54
2023/04/06 08:59:36;;;;;;;1.95;1.55;;;;;;;;;;4990674;28;20208;-55
2023/04/06 09:02:06;;;;;;;1.40;1.30;;;;;;;;;;4994915;28;20209;-54
2023/04/06 09:04:33;;;;;;;1.60;1.50;;;;;;;;;;4993751;28;20274;-54
2023/04/06 09:06:59;;;;;;;1.60;1.27;;;;;;;;;;4993534;28;20473;-54
2023/04/06 09:09:25;;;;;;;1.50;1.40;;;;;;;;;;4991685;28;20275;-54
2023/04/06 09:11:51;;;;;;;1.73;1.40;;;;;;;;;;4995101;28;20284;-55
2023/04/06 09:14:33;;;;;;;1.40;1.30;;;;;;;;;;4988081;28;20491;-54
2023/04/06 09:16:59;;;;;;;1.48;1.27;;;;;;;;;;4990611;28;20196;-54
2023/04/06 09:19:24;;;;;;;1.70;1.48;;;;;;;;;;4988449;28;20280;-54
2023/04/06 09:21:50;;;;;;;1.48;1.33;;;;;;;;;;4993683;28;20546;-54
2023/04/06 09:24:20;;;;;;;1.50;1.40;;;;;;;;;;4984202;28;20276;-54
2023/04/06 09:26:47;;;;;;;1.38;1.27;;;;;;;;;;4990987;28;20560;-54
2023/04/06 09:29:23;;;;;;;1.88;1.58;;;;;;;;;;4988554;28;20243;-54
2023/04/06 09:31:49;;;;;;;1.42;1.33;;;;;;;;;;4996441;28;20210;-54
2023/04/06 09:34:22;;;;;;;1.50;1.40;;;;;;;;;;4990651;28;20173;-54
2023/04/06 09:36:48;;;;;;;1.65;1.55;;;;;;;;;;4995071;28;20545;-54
2023/04/06 09:39:14;;;;;;;1.40;1.17;;;;;;;;;;4993990;28;20216;-54
2023/04/06 09:41:40;;;;;;;1.52;1.40;;;;;;;;;;4996673;28;20513;-54
2023/04/06 09:44:10;;;;;;;1.77;1.40;;;;;;;;;;4994843;28;20300;-54
2023/04/06 09:46:37;;;;;;;1.45;1.30;;;;;;;;;;4999641;28;20203;-54
2023/04/06 09:49:04;;;;;;;1.63;1.30;;;;;;;;;;4991423;28;20529;-54
2023/04/06 09:51:40;;;;;;;1.67;1.50;;;;;;;;;;4994475;28;20604;-54
2023/04/06 09:54:07;;;;;;;1.80;1.35;;;;;;;;;;4988906;28;20199;-54
2023/04/06 09:56:55;;;;;;;1.83;1.50;;;;;;;;;;4995526;28;20189;-54
2023/04/06 09:59:41;;;;;;;2.08;1.38;;;;;;;;;;4995558;28;20320;-54
2023/04/06 10:02:09;;;;;;;1.40;1.30;;;;;;;;;;4987775;28;20332;-54
2023/04/06 10:04:40;;;;;;;2.13;1.38;;;;;;;;;;5000868;28;20224;-55
2023/04/06 10:07:07;;;;;;;1.80;1.60;;;;;;;;;;5003576;28;20266;-55
2023/04/06 10:09:35;;;;;;;1.63;1.30;;;;;;;;;;5010198;28;20192;-56
2023/04/06 10:12:07;;;;;;;1.40;1.30;;;;;;;;;;4988449;28;20201;-55
2023/04/06 10:14:36;;;;;;;1.40;1.30;;;;;;;;;;4995252;28;20212;-54
2023/04/06 10:17:02;;;;;;;1.38;1.27;;;;;;;;;;5002973;28;20183;-55
2023/04/06 10:19:33;;;;;;;1.55;1.27;;;;;;;;;;4992025;28;20202;-54
2023/04/06 10:22:00;;;;;;;1.30;1.20;;;;;;;;;;4995601;28;20181;-54
2023/04/06 10:24:26;;;;;;;1.20;1.10;;;;;;;;;;4990451;28;20191;-54
2023/04/06 10:27:00;;;;;;;2.20;1.35;;;;;;;;;;4991822;28;20239;-54
2023/04/06 10:29:26;;;;;;;1.40;1.30;;;;;;;;;;4991763;28;20239;-55
2023/04/06 10:31:51;;;;;;;1.40;1.30;;;;;;;;;;4994274;28;20228;-54
2023/04/06 10:34:17;;;;;;;1.23;1.13;;;;;;;;;;4989516;28;20256;-54
2023/04/06 10:36:43;;;;;;;1.20;1.10;;;;;;;;;;4984405;28;20209;-55
2023/04/06 10:39:09;;;;;;;1.67;1.27;;;;;;;;;;4988905;28;20193;-54
2023/04/06 10:41:43;;;;;;;1.23;1.10;;;;;;;;;;4989724;28;20192;-54
2023/04/06 10:44:17;;;;;;;1.95;1.27;;;;;;;;;;4990914;28;20189;-55
2023/04/06 10:46:52;;;;;;;1.90;1.60;;;;;;;;;;5001867;28;20196;-55
2023/04/06 10:49:18;;;;;;;2.75;1.45;;;;;;;;;;4990839;28;20283;-54
2023/04/06 10:51:44;;;;;;;2.42;1.27;;;;;;;;;;4990932;28;20205;-54
2023/04/06 10:54:13;;;;;;;1.70;1.20;;;;;;;;;;4992032;28;20217;-55
2023/04/06 10:56:39;;;;;;;1.75;1.20;;;;;;;;;;4990461;28;20177;-55
2023/04/06 10:59:07;;;;;;;2.25;1.25;;;;;;;;;;4992978;28;20268;-54
2023/04/06 11:01:33;;;;;;;2.22;1.42;;;;;;;;;;4988950;28;20519;-54
2023/04/06 11:03:59;;;;;;;9.68;1.30;;;;;;;;;;4993079;28;20289;-54
2023/04/06 11:06:30;;;;;;;2.63;1.15;;;;;;;;;;4995759;28;20573;-55
2023/04/06 11:08:57;;;;;;;1.35;1.25;;;;;;;;;;4993217;28;20178;-55
2023/04/06 11:11:26;;;;;;;3.15;1.45;;;;;;;;;;4993406;28;20587;-54
2023/04/06 11:13:51;;;;;;;2.28;1.15;;;;;;;;;;4988690;28;20185;-54
2023/04/06 11:16:21;;;;;;;1.70;1.38;;;;;;;;;;5000190;28;20187;-55
2023/04/06 11:18:49;;;;;;;3.38;1.42;;;;;;;;;;4990551;28;20565;-55
2023/04/06 11:21:15;;;;;;;1.60;1.35;;;;;;;;;;4989049;28;20229;-54
2023/04/06 11:23:40;;;;;;;3.80;1.38;;;;;;;;;;4987676;28;20441;-55
2023/04/06 11:26:10;;;;;;;2.58;1.20;;;;;;;;;;4989669;28;20243;-55
2023/04/06 11:28:37;;;;;;;1.77;1.33;;;;;;;;;;4990899;28;20263;-54
2023/04/06 11:31:03;;;;;;;2.05;1.42;;;;;;;;;;4994638;28;20217;-54
2023/04/06 11:33:30;;;;;;;1.48;1.10;;;;;;;;;;4994646;28;20185;-54
2023/04/06 11:35:59;;;;;;;2.90;1.42;;;;;;;;;;4991009;28;20199;-55
2023/04/06 11:38:25;;;;;;;2.05;1.25;;;;;;;;;;4994763;28;20193;-54
2023/04/06 11:40:54;;;;;;;2.67;1.33;;;;;;;;;;4995369;28;20228;-55
2023/04/06 11:43:26;;;;;;;1.80;1.27;;;;;;;;;;4993770;28;20255;-55
2023/04/06 11:46:00;;;;;;;1.48;1.10;;;;;;;;;;4993774;28;20216;-55
2023/04/06 11:48:25;;;;;;;1.52;1.20;;;;;;;;;;5000857;28;20521;-55
2023/04/06 11:50:56;;;;;;;1.88;1.42;;;;;;;;;;4995381;28;20243;-55
2023/04/06 11:53:22;;;;;;;1.45;1.35;;;;;;;;;;4994563;28;20433;-55
2023/04/06 11:55:48;;;;;;;3.58;1.70;;;;;;;;;;4994222;28;20195;-56
2023/04/06 11:58:13;;;;;;;2.15;1.33;;;;;;;;;;4991011;28;20204;-55
2023/04/06 12:00:44;;;;;;;2.08;1.30;;;;;;;;;;4993112;28;20190;-55
2023/04/06 12:03:10;;;;;;;2.15;1.33;;;;;;;;;;4991977;28;20288;-55
2023/04/06 12:05:36;;;;;;;1.42;1.33;;;;;;;;;;4991791;28;20321;-55
2023/04/06 12:08:02;;;;;;;1.40;1.00;;;;;;;;;;4994474;28;20200;-55
2023/04/06 12:10:28;;;;;;;1.40;1.30;;;;;;;;;;4989849;28;20185;-55
2023/04/06 12:12:54;;;;;;;2.00;1.30;;;;;;;;;;4982941;28;20204;-55
2023/04/06 12:15:21;;;;;;;1.40;1.00;;;;;;;;;;4994349;28;20181;-55
2023/04/06 12:17:46;;;;;;;1.90;1.20;;;;;;;;;;4989898;28;20186;-55
2023/04/06 12:20:13;;;;;;;2.05;1.50;;;;;;;;;;4994232;28;20184;-55
2023/04/06 12:22:39;;;;;;;1.40;1.25;;;;;;;;;;4989280;28;21901;-55
2023/04/06 12:25:06;;;;;;;2.17;1.40;;;;;;;;;;4992998;28;20260;-55
2023/04/06 12:27:32;;;;;;;1.80;1.35;;;;;;;;;;4986882;28;20180;-55
2023/04/06 12:29:58;;;;;;;2.20;1.50;;;;;;;;;;4990915;28;20181;-55
2023/04/06 12:32:24;;;;;;;1.42;1.20;;;;;;;;;;4993245;28;20527;-55
2023/04/06 12:34:51;;;;;;;1.77;1.20;;;;;;;;;;4989493;28;20263;-55
2023/04/06 12:37:17;;;;;;;2.03;1.42;;;;;;;;;;4990879;28;20274;-56
2023/04/06 12:39:44;;;;;;;1.40;1.30;;;;;;;;;;4993690;28;20560;-55
2023/04/06 12:42:10;;;;;;;1.17;1.08;;;;;;;;;;4983454;28;20476;-55
2023/04/06 12:44:36;;;;;;;1.35;1.20;;;;;;;;;;4991265;28;20245;-55
2023/04/06 12:47:02;;;;;;;2.55;1.20;;;;;;;;;;4993838;28;20200;-55
2023/04/06 12:49:28;;;;;;;1.30;1.20;;;;;;;;;;4994342;28;20192;-55
2023/04/06 12:51:54;;;;;;;1.30;1.15;;;;;;;;;;4989335;28;20287;-55
2023/04/06 12:54:20;;;;;;;1.88;1.33;;;;;;;;;;4989087;28;20185;-55
2023/04/06 12:56:46;;;;;;;2.45;1.38;;;;;;;;;;4993746;28;20185;-55
2023/04/06 12:59:12;;;;;;;1.50;1.40;;;;;;;;;;4985927;28;20276;-55
2023/04/06 13:01:38;;;;;;;1.40;1.20;;;;;;;;;;4981919;28;20186;-55
2023/04/06 13:04:04;;;;;;;1.45;1.17;;;;;;;;;;4995190;28;20189;-55
2023/04/06 13:06:30;;;;;;;1.77;1.50;;;;;;;;;;4990831;28;20743;-55
2023/04/06 13:08:56;;;;;;;2.10;1.27;;;;;;;;;;4992883;28;20185;-55
2023/04/06 13:11:23;;;;;;;2.17;1.30;;;;;;;;;;4996357;28;20219;-55
2023/04/06 13:13:49;;;;;;;2.55;1.20;;;;;;;;;;4992352;28;20177;-55
2023/04/06 13:16:16;;;;;;;2.10;1.30;;;;;;;;;;4999763;28;20195;-55
2023/04/06 13:18:42;;;;;;;1.40;1.30;;;;;;;;;;4999146;28;20188;-55
2023/04/06 13:21:08;;;;;;;1.38;1.17;;;;;;;;;;4987605;28;20185;-55
2023/04/06 13:23:35;;;;;;;6.00;1.55;;;;;;;;;;4985047;28;20553;-55
2023/04/06 13:26:04;;;;;;;1.73;1.42;;;;;;;;;;4995735;28;20189;-55
2023/04/06 13:28:30;;;;;;;3.20;1.60;;;;;;;;;;4994739;28;20231;-55
2023/04/06 13:30:58;;;;;;;1.27;1.17;;;;;;;;;;4990431;28;20213;-55
2023/04/06 13:33:24;;;;;;;2.88;1.35;;;;;;;;;;4990245;28;20190;-55
2023/04/06 13:35:50;;;;;;;1.60;1.23;;;;;;;;;;4992614;28;20197;-55
2023/04/06 13:38:16;;;;;;;1.85;1.20;;;;;;;;;;4986134;28;20193;-55
2023/04/06 13:40:42;;;;;;;2.67;1.20;;;;;;;;;;4988317;28;20198;-55
2023/04/06 13:43:08;;;;;;;1.65;1.48;;;;;;;;;;4988151;28;20485;-55
2023/04/06 13:45:34;;;;;;;1.92;1.20;;;;;;;;;;4983838;28;20189;-55
2023/04/06 13:48:00;;;;;;;2.28;1.27;;;;;;;;;;4989209;28;20185;-56
2023/04/06 13:50:26;;;;;;;3.05;1.60;;;;;;;;;;4999141;28;20177;-55
2023/04/06 13:52:52;;;;;;;1.17;1.10;;;;;;;;;;4990688;28;20213;-55
2023/04/06 13:55:18;;;;;;;1.30;1.20;;;;;;;;;;4985898;28;20208;-55
2023/04/06 13:57:44;;;;;;;0.90;0.90;;;;;;;;;;5002328;28;20223;-55
2023/04/06 14:00:12;;;;;;;2.58;1.40;;;;;;;;;;4994839;28;20552;-55
2023/04/06 14:02:38;;;;;;;1.67;1.25;;;;;;;;;;4994412;28;20173;-55
2023/04/06 14:05:04;;;;;;;1.83;1.20;;;;;;;;;;4985485;28;20217;-55
2023/04/06 14:07:30;;;;;;;1.55;1.35;;;;;;;;;;4989197;28;20197;-55
2023/04/06 14:09:56;;;;;;;2.38;1.40;;;;;;;;;;4993681;28;20203;-55
2023/04/06 14:12:22;;;;;;;3.42;1.40;;;;;;;;;;4993018;28;20354;-55
2023/04/06 14:14:48;;;;;;;3.20;1.20;;;;;;;;;;4992149;28;20192;-55
2023/04/06 14:17:14;;;;;;;2.47;1.58;;;;;;;;;;4994468;28;20185;-55
2023/04/06 14:19:40;;;;;;;2.22;1.60;;;;;;;;;;4993818;28;20177;-55
2023/04/06 14:22:06;;;;;;;1.58;0.90;;;;;;;;;;4992188;28;20200;-55
2023/04/06 14:24:32;;;;;;;2.22;1.20;;;;;;;;;;4991201;28;20589;-55
2023/04/06 14:27:00;;;;;;;1.83;1.30;;;;;;;;;;4993209;28;20200;-55
2023/04/06 14:29:26;;;;;;;2.78;1.48;;;;;;;;;;4993323;28;20507;-55
2023/04/06 14:31:52;;;;;;;2.22;1.20;;;;;;;;;;4996733;28;20284;-55
2023/04/06 14:34:18;;;;;;;1.33;1.13;;;;;;;;;;4992044;28;20219;-55
2023/04/06 14:36:44;;;;;;;1.92;1.27;;;;;;;;;;4987522;28;20213;-56
2023/04/06 14:39:10;;;;;;;1.13;1.00;;;;;;;;;;4991530;28;20217;-55